sensor_id;sensor_type;location;lat;lon;timestamp;temperature;humidity
2158;DHT22;41972;48.774;9.282;2022-08-21T00:01:11;14.10;99.90
2158;DHT22;41972;48.774;9.282;2022-08-21T00:03:37;14.10;99.90
2158;DHT22;41972;48.774;9.282;2022-08-21T00:06:03;14.80;99.90
2158;DHT22;41972;48.774;9.282;2022-08-21T00:08:29;13.90;99.90
2158;DHT22;41972;48.774;9.282;2022-08-21T00:10:55;13.90;99.90
2158;DHT22;41972;48.774;9.282;2022-08-21T00:13:21;14.00;99.90
2158;DHT22;41972;48.774;9.282;2022-08-21T00:15:49;13.80;99.90
2158;DHT22;41972;48.774;9.282;2022-08-21T00:18:15;13.80;99.90
2158;DHT22;41972;48.774;9.282;2022-08-21T00:20:43;14.50;99.90
2158;DHT22;41972;48.774;9.282;2022-08-21T00:23:09;13.70;99.90
2158;DHT22;41972;48.774;9.282;2022-08-21T00:25:35;13.70;99.90
2158;DHT22;41972;48.774;9.282;2022-08-21T00:28:01;13.70;99.90
2158;DHT22;41972;48.774;9.282;2022-08-21T00:30:28;13.70;99.90
2158;DHT22;41972;48.774;9.282;2022-08-21T00:32:55;13.60;99.90
2158;DHT22;41972;48.774;9.282;2022-08-21T00:35:25;13.60;99.90
2158;DHT22;41972;48.774;9.282;2022-08-21T00:37:51;13.60;99.90
2158;DHT22;41972;48.774;9.282;2022-08-21T00:40:20;13.70;99.90
2158;DHT22;41972;48.774;9.282;2022-08-21T00:42:46;13.50;99.90
2158;DHT22;41972;48.774;9.282;2022-08-21T00:45:11;13.50;99.90
2158;DHT22;41972;48.774;9.282;2022-08-21T00:47:37;13.30;99.90
2158;DHT22;41972;48.774;9.282;2022-08-21T00:50:05;13.30;99.90
2158;DHT22;41972;48.774;9.282;2022-08-21T00:52:32;13.30;99.90
2158;DHT22;41972;48.774;9.282;2022-08-21T00:55:00;13.20;99.90
2158;DHT22;41972;48.774;9.282;2022-08-21T00:57:31;13.20;99.90
2158;DHT22;41972;48.774;9.282;2022-08-21T01:00:01;13.30;99.90
2158;DHT22;41972;48.774;9.282;2022-08-21T01:02:28;13.40;99.90
2158;DHT22;41972;48.774;9.282;2022-08-21T01:04:53;13.40;99.90
2158;DHT22;41972;48.774;9.282;2022-08-21T01:07:19;13.20;99.90
2158;DHT22;41972;48.774;9.282;2022-08-21T01:09:46;13.30;99.90
2158;DHT22;41972;48.774;9.282;2022-08-21T01:12:12;13.10;99.90
2158;DHT22;41972;48.774;9.282;2022-08-21T01:14:38;13.20;99.90
2158;DHT22;41972;48.774;9.282;2022-08-21T01:17:05;13.10;99.90
2158;DHT22;41972;48.774;9.282;2022-08-21T01:19:32;13.10;99.90
2158;DHT22;41972;48.774;9.282;2022-08-21T01:21:57;13.20;99.90
2158;DHT22;41972;48.774;9.282;2022-08-21T01:24:25;13.10;99.90
2158;DHT22;41972;48.774;9.282;2022-08-21T01:26:51;13.20;99.90
2158;DHT22;41972;48.774;9.282;2022-08-21T01:31:51;13.10;99.90
2158;DHT22;41972;48.774;9.282;2022-08-21T01:34:17;13.20;99.90
2158;DHT22;41972;48.774;9.282;2022-08-21T01:36:44;13.20;99.90
2158;DHT22;41972;48.774;9.282;2022-08-21T01:39:10;13.20;99.90
2158;DHT22;41972;48.774;9.282;2022-08-21T01:41:36;13.10;99.90
2158;DHT22;41972;48.774;9.282;2022-08-21T01:44:02;13.10;99.90
2158;DHT22;41972;48.774;9.282;2022-08-21T01:46:28;13.00;99.90
2158;DHT22;41972;48.774;9.282;2022-08-21T01:48:54;13.00;99.90
2158;DHT22;41972;48.774;9.282;2022-08-21T01:51:19;14.00;99.90
2158;DHT22;41972;48.774;9.282;2022-08-21T01:53:45;13.00;99.90
2158;DHT22;41972;48.774;9.282;2022-08-21T01:56:13;12.90;99.90
2158;DHT22;41972;48.774;9.282;2022-08-21T01:58:40;13.00;99.90
2158;DHT22;41972;48.774;9.282;2022-08-21T02:01:07;13.20;99.90
2158;DHT22;41972;48.774;9.282;2022-08-21T02:03:32;14.00;99.90
2158;DHT22;41972;48.774;9.282;2022-08-21T02:05:58;13.00;99.90
2158;DHT22;41972;48.774;9.282;2022-08-21T02:08:23;12.90;99.90
2158;DHT22;41972;48.774;9.282;2022-08-21T02:10:50;12.80;99.90
2158;DHT22;41972;48.774;9.282;2022-08-21T02:13:17;12.80;99.90
2158;DHT22;41972;48.774;9.282;2022-08-21T02:15:43;12.80;99.90
2158;DHT22;41972;48.774;9.282;2022-08-21T02:18:10;13.00;99.90
2158;DHT22;41972;48.774;9.282;2022-08-21T02:20:42;12.90;99.90
2158;DHT22;41972;48.774;9.282;2022-08-21T02:23:09;13.00;99.90
2158;DHT22;41972;48.774;9.282;2022-08-21T02:25:35;12.90;99.90
2158;DHT22;41972;48.774;9.282;2022-08-21T02:28:07;12.70;99.90
2158;DHT22;41972;48.774;9.282;2022-08-21T02:30:36;12.70;99.90
2158;DHT22;41972;48.774;9.282;2022-08-21T02:33:03;12.70;99.90
2158;DHT22;41972;48.774;9.282;2022-08-21T02:35:31;12.70;99.90
2158;DHT22;41972;48.774;9.282;2022-08-21T02:37:59;12.50;99.90
2158;DHT22;41972;48.774;9.282;2022-08-21T02:40:29;12.40;99.90
2158;DHT22;41972;48.774;9.282;2022-08-21T02:42:56;12.50;99.90
2158;DHT22;41972;48.774;9.282;2022-08-21T02:45:22;12.60;99.90
2158;DHT22;41972;48.774;9.282;2022-08-21T02:47:54;12.50;99.90
2158;DHT22;41972;48.774;9.282;2022-08-21T02:50:26;12.40;99.90
2158;DHT22;41972;48.774;9.282;2022-08-21T02:52:51;12.40;99.90
2158;DHT22;41972;48.774;9.282;2022-08-21T02:55:18;12.40;99.90
2158;DHT22;41972;48.774;9.282;2022-08-21T02:57:46;12.40;99.90
2158;DHT22;41972;48.774;9.282;2022-08-21T03:00:13;12.30;99.90
2158;DHT22;41972;48.774;9.282;2022-08-21T03:02:39;12.60;99.90
2158;DHT22;41972;48.774;9.282;2022-08-21T03:05:07;12.50;99.90
2158;DHT22;41972;48.774;9.282;2022-08-21T03:07:33;12.50;99.90
2158;DHT22;41972;48.774;9.282;2022-08-21T03:10:00;12.30;99.90
2158;DHT22;41972;48.774;9.282;2022-08-21T03:12:25;12.40;99.90
2158;DHT22;41972;48.774;9.282;2022-08-21T03:14:51;12.30;99.90
2158;DHT22;41972;48.774;9.282;2022-08-21T03:17:16;12.30;99.90
2158;DHT22;41972;48.774;9.282;2022-08-21T03:19:42;12.40;99.90
2158;DHT22;41972;48.774;9.282;2022-08-21T03:22:07;12.30;99.90
2158;DHT22;41972;48.774;9.282;2022-08-21T03:24:33;12.30;99.90
2158;DHT22;41972;48.774;9.282;2022-08-21T03:26:59;12.50;99.90
2158;DHT22;41972;48.774;9.282;2022-08-21T03:29:25;12.50;99.90
2158;DHT22;41972;48.774;9.282;2022-08-21T03:31:50;12.50;99.90
2158;DHT22;41972;48.774;9.282;2022-08-21T03:34:17;12.50;99.90
2158;DHT22;41972;48.774;9.282;2022-08-21T03:36:43;12.50;99.90
2158;DHT22;41972;48.774;9.282;2022-08-21T03:39:09;12.50;99.90
2158;DHT22;41972;48.774;9.282;2022-08-21T03:41:34;12.50;99.90
2158;DHT22;41972;48.774;9.282;2022-08-21T03:44:00;12.50;99.90
2158;DHT22;41972;48.774;9.282;2022-08-21T03:46:25;12.40;99.90
2158;DHT22;41972;48.774;9.282;2022-08-21T03:48:51;12.50;99.90
2158;DHT22;41972;48.774;9.282;2022-08-21T03:51:18;12.30;99.90
2158;DHT22;41972;48.774;9.282;2022-08-21T03:53:44;13.20;99.90
2158;DHT22;41972;48.774;9.282;2022-08-21T03:56:10;12.20;99.90
2158;DHT22;41972;48.774;9.282;2022-08-21T03:58:36;12.90;99.90
2158;DHT22;41972;48.774;9.282;2022-08-21T04:01:03;12.40;99.90
2158;DHT22;41972;48.774;9.282;2022-08-21T04:03:30;12.20;99.90
2158;DHT22;41972;48.774;9.282;2022-08-21T04:05:55;12.20;99.90
2158;DHT22;41972;48.774;9.282;2022-08-21T04:08:21;13.10;99.90
2158;DHT22;41972;48.774;9.282;2022-08-21T04:10:49;12.10;99.90
2158;DHT22;41972;48.774;9.282;2022-08-21T04:13:15;12.20;99.90
2158;DHT22;41972;48.774;9.282;2022-08-21T04:15:41;12.10;99.90
2158;DHT22;41972;48.774;9.282;2022-08-21T04:18:07;12.10;99.90
2158;DHT22;41972;48.774;9.282;2022-08-21T04:20:34;12.10;99.90
2158;DHT22;41972;48.774;9.282;2022-08-21T04:23:01;12.10;99.90
2158;DHT22;41972;48.774;9.282;2022-08-21T04:25:27;12.00;99.90
2158;DHT22;41972;48.774;9.282;2022-08-21T04:27:53;12.00;99.90
2158;DHT22;41972;48.774;9.282;2022-08-21T04:30:19;11.80;99.90
2158;DHT22;41972;48.774;9.282;2022-08-21T04:32:46;11.90;99.90
2158;DHT22;41972;48.774;9.282;2022-08-21T04:35:14;11.80;99.90
2158;DHT22;41972;48.774;9.282;2022-08-21T04:37:39;11.80;99.90
2158;DHT22;41972;48.774;9.282;2022-08-21T04:40:06;12.00;99.90
2158;DHT22;41972;48.774;9.282;2022-08-21T04:42:32;12.10;99.90
2158;DHT22;41972;48.774;9.282;2022-08-21T04:44:58;12.00;99.90
2158;DHT22;41972;48.774;9.282;2022-08-21T04:47:24;13.00;99.90
2158;DHT22;41972;48.774;9.282;2022-08-21T04:49:50;12.10;99.90
2158;DHT22;41972;48.774;9.282;2022-08-21T04:52:18;12.80;99.90
2158;DHT22;41972;48.774;9.282;2022-08-21T04:54:45;12.00;99.90
2158;DHT22;41972;48.774;9.282;2022-08-21T04:57:15;12.10;99.90
2158;DHT22;41972;48.774;9.282;2022-08-21T04:59:44;12.10;99.90
2158;DHT22;41972;48.774;9.282;2022-08-21T05:02:11;12.60;99.90
2158;DHT22;41972;48.774;9.282;2022-08-21T05:04:42;12.30;99.90
2158;DHT22;41972;48.774;9.282;2022-08-21T05:07:13;12.70;99.90
2158;DHT22;41972;48.774;9.282;2022-08-21T05:09:40;14.70;99.90
2158;DHT22;41972;48.774;9.282;2022-08-21T05:12:05;13.50;99.90
2158;DHT22;41972;48.774;9.282;2022-08-21T05:14:31;12.70;99.90
2158;DHT22;41972;48.774;9.282;2022-08-21T05:16:57;12.80;99.90
2158;DHT22;41972;48.774;9.282;2022-08-21T05:19:22;13.60;99.90
2158;DHT22;41972;48.774;9.282;2022-08-21T05:21:48;13.10;99.90
2158;DHT22;41972;48.774;9.282;2022-08-21T05:24:15;14.00;99.90
2158;DHT22;41972;48.774;9.282;2022-08-21T05:26:41;15.40;99.90
2158;DHT22;41972;48.774;9.282;2022-08-21T05:29:07;16.70;99.90
2158;DHT22;41972;48.774;9.282;2022-08-21T05:31:33;18.70;99.90
2158;DHT22;41972;48.774;9.282;2022-08-21T05:33:58;18.90;99.90
2158;DHT22;41972;48.774;9.282;2022-08-21T05:36:24;19.50;99.90
2158;DHT22;41972;48.774;9.282;2022-08-21T05:38:50;19.80;99.90
2158;DHT22;41972;48.774;9.282;2022-08-21T05:41:16;19.60;99.90
2158;DHT22;41972;48.774;9.282;2022-08-21T05:43:41;19.10;99.90
2158;DHT22;41972;48.774;9.282;2022-08-21T05:48:34;18.80;99.90
2158;DHT22;41972;48.774;9.282;2022-08-21T05:51:05;18.40;99.90
2158;DHT22;41972;48.774;9.282;2022-08-21T05:53:31;18.20;99.90
2158;DHT22;41972;48.774;9.282;2022-08-21T05:55:57;18.10;99.90
2158;DHT22;41972;48.774;9.282;2022-08-21T05:58:22;18.70;99.90
2158;DHT22;41972;48.774;9.282;2022-08-21T06:00:49;19.00;99.90
2158;DHT22;41972;48.774;9.282;2022-08-21T06:03:21;19.00;99.90
2158;DHT22;41972;48.774;9.282;2022-08-21T06:05:47;19.10;99.90
2158;DHT22;41972;48.774;9.282;2022-08-21T06:08:15;19.80;99.90
2158;DHT22;41972;48.774;9.282;2022-08-21T06:10:41;20.00;99.90
2158;DHT22;41972;48.774;9.282;2022-08-21T06:13:07;20.30;99.90
2158;DHT22;41972;48.774;9.282;2022-08-21T06:15:32;20.10;99.90
2158;DHT22;41972;48.774;9.282;2022-08-21T06:17:58;20.10;99.90
2158;DHT22;41972;48.774;9.282;2022-08-21T06:20:23;20.20;99.90
2158;DHT22;41972;48.774;9.282;2022-08-21T06:22:49;20.40;99.90
2158;DHT22;41972;48.774;9.282;2022-08-21T06:25:14;20.50;99.90
2158;DHT22;41972;48.774;9.282;2022-08-21T06:27:40;20.60;99.90
2158;DHT22;41972;48.774;9.282;2022-08-21T06:30:06;22.40;99.90
2158;DHT22;41972;48.774;9.282;2022-08-21T06:32:33;22.30;99.90
2158;DHT22;41972;48.774;9.282;2022-08-21T06:34:59;22.00;99.90
2158;DHT22;41972;48.774;9.282;2022-08-21T06:37:24;22.90;99.90
2158;DHT22;41972;48.774;9.282;2022-08-21T06:39:50;22.40;99.90
2158;DHT22;41972;48.774;9.282;2022-08-21T06:42:16;21.80;99.90
2158;DHT22;41972;48.774;9.282;2022-08-21T06:44:43;22.50;99.90
2158;DHT22;41972;48.774;9.282;2022-08-21T06:47:09;23.40;99.90
2158;DHT22;41972;48.774;9.282;2022-08-21T06:49:35;23.20;99.90
2158;DHT22;41972;48.774;9.282;2022-08-21T06:52:01;23.70;99.90
2158;DHT22;41972;48.774;9.282;2022-08-21T06:54:26;25.80;99.90
2158;DHT22;41972;48.774;9.282;2022-08-21T06:56:52;27.40;95.00
2158;DHT22;41972;48.774;9.282;2022-08-21T06:59:17;28.30;85.10
2158;DHT22;41972;48.774;9.282;2022-08-21T07:01:43;28.90;66.60
2158;DHT22;41972;48.774;9.282;2022-08-21T07:04:09;29.30;57.80
2158;DHT22;41972;48.774;9.282;2022-08-21T07:06:34;27.00;66.40
2158;DHT22;41972;48.774;9.282;2022-08-21T07:09:00;25.90;72.00
2158;DHT22;41972;48.774;9.282;2022-08-21T07:11:26;27.10;79.60
2158;DHT22;41972;48.774;9.282;2022-08-21T07:13:52;26.70;71.30
2158;DHT22;41972;48.774;9.282;2022-08-21T07:16:20;26.90;84.00
2158;DHT22;41972;48.774;9.282;2022-08-21T07:18:46;29.80;58.10
2158;DHT22;41972;48.774;9.282;2022-08-21T07:21:12;29.40;46.60
2158;DHT22;41972;48.774;9.282;2022-08-21T07:23:40;29.20;41.40
2158;DHT22;41972;48.774;9.282;2022-08-21T07:26:07;27.70;41.50
2158;DHT22;41972;48.774;9.282;2022-08-21T07:28:33;26.60;54.30
2158;DHT22;41972;48.774;9.282;2022-08-21T07:31:00;24.70;57.20
2158;DHT22;41972;48.774;9.282;2022-08-21T07:33:28;25.20;63.90
2158;DHT22;41972;48.774;9.282;2022-08-21T07:35:54;24.90;68.10
2158;DHT22;41972;48.774;9.282;2022-08-21T07:38:20;24.70;76.90
2158;DHT22;41972;48.774;9.282;2022-08-21T07:40:47;25.50;74.70
2158;DHT22;41972;48.774;9.282;2022-08-21T07:43:13;28.40;51.60
2158;DHT22;41972;48.774;9.282;2022-08-21T07:45:40;27.80;48.10
2158;DHT22;41972;48.774;9.282;2022-08-21T07:48:06;26.40;51.20
2158;DHT22;41972;48.774;9.282;2022-08-21T07:50:31;26.30;63.30
2158;DHT22;41972;48.774;9.282;2022-08-21T07:52:57;26.70;55.60
2158;DHT22;41972;48.774;9.282;2022-08-21T07:55:23;28.20;52.80
2158;DHT22;41972;48.774;9.282;2022-08-21T07:57:49;30.10;32.60
2158;DHT22;41972;48.774;9.282;2022-08-21T08:00:18;32.10;21.40
2158;DHT22;41972;48.774;9.282;2022-08-21T08:02:46;31.90;18.60
2158;DHT22;41972;48.774;9.282;2022-08-21T08:05:15;31.10;14.90
2158;DHT22;41972;48.774;9.282;2022-08-21T08:07:41;29.00;16.40
2158;DHT22;41972;48.774;9.282;2022-08-21T08:10:07;30.70;19.90
2158;DHT22;41972;48.774;9.282;2022-08-21T08:12:39;32.30;15.40
2158;DHT22;41972;48.774;9.282;2022-08-21T08:15:07;31.60;10.10
2158;DHT22;41972;48.774;9.282;2022-08-21T08:17:33;30.00;10.00
2158;DHT22;41972;48.774;9.282;2022-08-21T08:19:59;28.60;16.60
2158;DHT22;41972;48.774;9.282;2022-08-21T08:22:26;30.50;11.20
2158;DHT22;41972;48.774;9.282;2022-08-21T08:24:53;30.50;12.80
2158;DHT22;41972;48.774;9.282;2022-08-21T08:27:19;32.30;9.30
2158;DHT22;41972;48.774;9.282;2022-08-21T08:29:46;34.50;1.40
2158;DHT22;41972;48.774;9.282;2022-08-21T08:32:11;34.50;1.00
2158;DHT22;41972;48.774;9.282;2022-08-21T08:34:38;35.00;1.00
2158;DHT22;41972;48.774;9.282;2022-08-21T08:37:06;32.40;1.00
2158;DHT22;41972;48.774;9.282;2022-08-21T08:39:32;32.10;1.00
2158;DHT22;41972;48.774;9.282;2022-08-21T08:42:05;31.30;1.00
2158;DHT22;41972;48.774;9.282;2022-08-21T08:44:31;34.50;1.00
2158;DHT22;41972;48.774;9.282;2022-08-21T08:46:57;38.60;1.00
2158;DHT22;41972;48.774;9.282;2022-08-21T08:50:13;40.10;1.00
2158;DHT22;41972;48.774;9.282;2022-08-21T08:52:39;39.60;1.00
2158;DHT22;41972;48.774;9.282;2022-08-21T08:55:15;35.30;1.00
2158;DHT22;41972;48.774;9.282;2022-08-21T08:57:46;35.40;1.00
2158;DHT22;41972;48.774;9.282;2022-08-21T09:00:15;35.30;1.00
2158;DHT22;41972;48.774;9.282;2022-08-21T09:02:43;36.80;1.00
2158;DHT22;41972;48.774;9.282;2022-08-21T09:05:27;40.00;1.00
2158;DHT22;41972;48.774;9.282;2022-08-21T09:10:48;40.90;1.00
2158;DHT22;41972;48.774;9.282;2022-08-21T09:13:24;39.20;1.00
2158;DHT22;41972;48.774;9.282;2022-08-21T09:27:11;38.40;1.00
2158;DHT22;41972;48.774;9.282;2022-08-21T09:29:41;41.20;1.00
2158;DHT22;41972;48.774;9.282;2022-08-21T09:34:42;34.70;1.00
2158;DHT22;41972;48.774;9.282;2022-08-21T09:37:16;35.50;1.00
2158;DHT22;41972;48.774;9.282;2022-08-21T09:39:43;39.80;1.00
2158;DHT22;41972;48.774;9.282;2022-08-21T09:42:10;42.50;1.00
2158;DHT22;41972;48.774;9.282;2022-08-21T09:44:40;42.20;1.00
2158;DHT22;41972;48.774;9.282;2022-08-21T09:47:10;40.80;1.00
2158;DHT22;41972;48.774;9.282;2022-08-21T09:49:40;37.60;1.00
2158;DHT22;41972;48.774;9.282;2022-08-21T09:52:21;38.30;1.00
2158;DHT22;41972;48.774;9.282;2022-08-21T09:54:51;38.70;1.00
2158;DHT22;41972;48.774;9.282;2022-08-21T09:57:27;36.60;1.00
2158;DHT22;41972;48.774;9.282;2022-08-21T10:02:45;32.50;1.00
2158;DHT22;41972;48.774;9.282;2022-08-21T10:05:24;29.90;1.00
2158;DHT22;41972;48.774;9.282;2022-08-21T10:07:51;29.40;1.00
2158;DHT22;41972;48.774;9.282;2022-08-21T10:10:20;29.00;1.00
2158;DHT22;41972;48.774;9.282;2022-08-21T10:21:02;28.40;1.00
2158;DHT22;41972;48.774;9.282;2022-08-21T10:24:06;30.30;1.00
2158;DHT22;41972;48.774;9.282;2022-08-21T10:26:37;31.60;1.00
2158;DHT22;41972;48.774;9.282;2022-08-21T10:32:27;30.50;1.00
2158;DHT22;41972;48.774;9.282;2022-08-21T10:40:40;32.80;1.00
2158;DHT22;41972;48.774;9.282;2022-08-21T10:43:20;34.10;1.00
2158;DHT22;41972;48.774;9.282;2022-08-21T10:46:24;36.70;1.00
2158;DHT22;41972;48.774;9.282;2022-08-21T10:48:58;36.90;1.00
2158;DHT22;41972;48.774;9.282;2022-08-21T10:51:44;37.50;1.00
2158;DHT22;41972;48.774;9.282;2022-08-21T10:57:12;37.90;1.00
2158;DHT22;41972;48.774;9.282;2022-08-21T10:59:46;37.70;1.00
2158;DHT22;41972;48.774;9.282;2022-08-21T11:02:19;39.10;1.00
2158;DHT22;41972;48.774;9.282;2022-08-21T11:04:56;34.60;1.00
2158;DHT22;41972;48.774;9.282;2022-08-21T11:07:30;32.60;1.00
2158;DHT22;41972;48.774;9.282;2022-08-21T11:10:03;32.00;1.00
2158;DHT22;41972;48.774;9.282;2022-08-21T11:12:43;30.00;1.00
2158;DHT22;41972;48.774;9.282;2022-08-21T11:15:41;30.00;1.00
2158;DHT22;41972;48.774;9.282;2022-08-21T11:18:25;29.00;1.00
2158;DHT22;41972;48.774;9.282;2022-08-21T11:26:45;28.30;1.00
2158;DHT22;41972;48.774;9.282;2022-08-21T11:29:16;27.50;1.00
2158;DHT22;41972;48.774;9.282;2022-08-21T11:31:51;28.10;1.00
2158;DHT22;41972;48.774;9.282;2022-08-21T11:34:38;27.80;1.00
2158;DHT22;41972;48.774;9.282;2022-08-21T11:37:33;26.10;1.00
2158;DHT22;41972;48.774;9.282;2022-08-21T11:50:30;26.30;1.00
2158;DHT22;41972;48.774;9.282;2022-08-21T11:53:17;26.40;1.00
2158;DHT22;41972;48.774;9.282;2022-08-21T11:56:12;26.30;1.00
2158;DHT22;41972;48.774;9.282;2022-08-21T11:58:49;26.40;1.00
2158;DHT22;41972;48.774;9.282;2022-08-21T12:01:19;25.60;1.00
2158;DHT22;41972;48.774;9.282;2022-08-21T12:04:06;25.60;1.00
2158;DHT22;41972;48.774;9.282;2022-08-21T12:06:36;25.70;1.00
2158;DHT22;41972;48.774;9.282;2022-08-21T12:12:05;25.90;1.00
2158;DHT22;41972;48.774;9.282;2022-08-21T12:14:43;26.00;1.00
2158;DHT22;41972;48.774;9.282;2022-08-21T12:17:19;25.30;1.00
2158;DHT22;41972;48.774;9.282;2022-08-21T12:19:45;25.20;1.00
2158;DHT22;41972;48.774;9.282;2022-08-21T12:22:14;25.80;1.00
2158;DHT22;41972;48.774;9.282;2022-08-21T12:24:48;26.40;1.00
2158;DHT22;41972;48.774;9.282;2022-08-21T12:27:41;25.80;1.00
2158;DHT22;41972;48.774;9.282;2022-08-21T12:33:05;26.00;1.00
2158;DHT22;41972;48.774;9.282;2022-08-21T12:35:40;26.30;1.00
2158;DHT22;41972;48.774;9.282;2022-08-21T12:38:26;26.80;1.00
2158;DHT22;41972;48.774;9.282;2022-08-21T12:41:04;26.80;1.00
2158;DHT22;41972;48.774;9.282;2022-08-21T12:43:40;26.40;1.00
2158;DHT22;41972;48.774;9.282;2022-08-21T12:46:06;27.00;1.00
2158;DHT22;41972;48.774;9.282;2022-08-21T12:48:51;27.10;1.00
2158;DHT22;41972;48.774;9.282;2022-08-21T12:51:28;25.70;1.00
2158;DHT22;41972;48.774;9.282;2022-08-21T12:53:57;25.60;1.00
2158;DHT22;41972;48.774;9.282;2022-08-21T12:56:25;25.20;1.00
2158;DHT22;41972;48.774;9.282;2022-08-21T12:58:57;25.10;1.00
2158;DHT22;41972;48.774;9.282;2022-08-21T13:04:03;24.80;1.00
2158;DHT22;41972;48.774;9.282;2022-08-21T13:06:36;24.80;1.00
2158;DHT22;41972;48.774;9.282;2022-08-21T13:09:06;24.80;1.00
2158;DHT22;41972;48.774;9.282;2022-08-21T13:11:33;24.80;1.00
2158;DHT22;41972;48.774;9.282;2022-08-21T13:14:01;25.10;1.00
2158;DHT22;41972;48.774;9.282;2022-08-21T13:16:28;25.40;1.00
2158;DHT22;41972;48.774;9.282;2022-08-21T13:18:59;25.50;1.00
2158;DHT22;41972;48.774;9.282;2022-08-21T13:21:30;25.50;1.00
2158;DHT22;41972;48.774;9.282;2022-08-21T13:24:17;25.70;1.00
2158;DHT22;41972;48.774;9.282;2022-08-21T13:26:44;26.10;1.00
2158;DHT22;41972;48.774;9.282;2022-08-21T13:29:12;26.50;1.00
2158;DHT22;41972;48.774;9.282;2022-08-21T13:31:39;26.50;1.00
2158;DHT22;41972;48.774;9.282;2022-08-21T13:34:09;26.70;1.00
2158;DHT22;41972;48.774;9.282;2022-08-21T13:36:40;27.00;1.00
2158;DHT22;41972;48.774;9.282;2022-08-21T13:39:12;27.20;1.00
2158;DHT22;41972;48.774;9.282;2022-08-21T13:41:43;27.00;1.00
2158;DHT22;41972;48.774;9.282;2022-08-21T13:44:23;27.10;1.00
2158;DHT22;41972;48.774;9.282;2022-08-21T13:46:53;27.00;1.00
2158;DHT22;41972;48.774;9.282;2022-08-21T13:49:23;26.50;1.00
2158;DHT22;41972;48.774;9.282;2022-08-21T13:51:51;26.20;1.00
2158;DHT22;41972;48.774;9.282;2022-08-21T13:54:23;26.40;1.00
2158;DHT22;41972;48.774;9.282;2022-08-21T13:56:49;26.80;1.00
2158;DHT22;41972;48.774;9.282;2022-08-21T13:59:33;27.00;1.00
2158;DHT22;41972;48.774;9.282;2022-08-21T14:02:08;26.10;1.00
2158;DHT22;41972;48.774;9.282;2022-08-21T14:04:39;25.90;1.00
2158;DHT22;41972;48.774;9.282;2022-08-21T14:07:28;25.90;1.00
2158;DHT22;41972;48.774;9.282;2022-08-21T14:09:55;25.40;1.00
2158;DHT22;41972;48.774;9.282;2022-08-21T14:12:29;25.60;1.00
2158;DHT22;41972;48.774;9.282;2022-08-21T14:14:58;25.70;1.00
2158;DHT22;41972;48.774;9.282;2022-08-21T14:17:33;25.70;1.00
2158;DHT22;41972;48.774;9.282;2022-08-21T14:20:01;25.90;1.00
2158;DHT22;41972;48.774;9.282;2022-08-21T14:22:43;26.10;1.00
2158;DHT22;41972;48.774;9.282;2022-08-21T14:28:13;26.10;1.00
2158;DHT22;41972;48.774;9.282;2022-08-21T14:30:41;26.00;1.00
2158;DHT22;41972;48.774;9.282;2022-08-21T14:33:11;25.90;1.00
2158;DHT22;41972;48.774;9.282;2022-08-21T14:35:38;25.80;1.00
2158;DHT22;41972;48.774;9.282;2022-08-21T14:38:18;25.80;1.00
2158;DHT22;41972;48.774;9.282;2022-08-21T14:40:52;25.80;1.00
2158;DHT22;41972;48.774;9.282;2022-08-21T14:43:19;25.90;1.00
2158;DHT22;41972;48.774;9.282;2022-08-21T14:45:45;26.10;1.00
2158;DHT22;41972;48.774;9.282;2022-08-21T14:48:10;26.20;1.00
2158;DHT22;41972;48.774;9.282;2022-08-21T14:50:36;26.30;1.00
2158;DHT22;41972;48.774;9.282;2022-08-21T14:53:02;26.30;1.00
2158;DHT22;41972;48.774;9.282;2022-08-21T14:55:30;26.00;1.00
2158;DHT22;41972;48.774;9.282;2022-08-21T14:58:16;26.00;1.00
2158;DHT22;41972;48.774;9.282;2022-08-21T15:00:42;26.00;1.00
2158;DHT22;41972;48.774;9.282;2022-08-21T15:03:07;26.00;1.00
2158;DHT22;41972;48.774;9.282;2022-08-21T15:05:33;26.00;1.00
2158;DHT22;41972;48.774;9.282;2022-08-21T15:07:59;26.10;1.00
2158;DHT22;41972;48.774;9.282;2022-08-21T15:10:24;26.10;1.00
2158;DHT22;41972;48.774;9.282;2022-08-21T15:12:50;26.00;1.00
2158;DHT22;41972;48.774;9.282;2022-08-21T15:15:15;26.00;1.00
2158;DHT22;41972;48.774;9.282;2022-08-21T15:17:41;26.10;1.00
2158;DHT22;41972;48.774;9.282;2022-08-21T15:20:07;26.10;1.00
2158;DHT22;41972;48.774;9.282;2022-08-21T15:22:34;26.10;1.00
2158;DHT22;41972;48.774;9.282;2022-08-21T15:25:00;26.10;1.00
2158;DHT22;41972;48.774;9.282;2022-08-21T15:27:27;26.10;1.00
2158;DHT22;41972;48.774;9.282;2022-08-21T15:29:53;26.10;1.00
2158;DHT22;41972;48.774;9.282;2022-08-21T15:32:20;26.00;1.00
2158;DHT22;41972;48.774;9.282;2022-08-21T15:34:47;26.10;1.00
2158;DHT22;41972;48.774;9.282;2022-08-21T15:37:13;26.10;1.00
2158;DHT22;41972;48.774;9.282;2022-08-21T15:39:38;26.00;1.00
2158;DHT22;41972;48.774;9.282;2022-08-21T15:42:04;25.90;1.00
2158;DHT22;41972;48.774;9.282;2022-08-21T15:44:30;25.90;1.00
2158;DHT22;41972;48.774;9.282;2022-08-21T15:46:56;25.90;1.00
2158;DHT22;41972;48.774;9.282;2022-08-21T15:49:22;25.60;1.00
2158;DHT22;41972;48.774;9.282;2022-08-21T15:51:48;25.90;1.00
2158;DHT22;41972;48.774;9.282;2022-08-21T15:54:13;25.90;1.00
2158;DHT22;41972;48.774;9.282;2022-08-21T15:56:41;25.80;1.00
2158;DHT22;41972;48.774;9.282;2022-08-21T15:59:13;25.80;1.00
2158;DHT22;41972;48.774;9.282;2022-08-21T16:01:40;25.60;1.00
2158;DHT22;41972;48.774;9.282;2022-08-21T16:04:07;25.70;1.00
2158;DHT22;41972;48.774;9.282;2022-08-21T16:06:33;25.80;1.00
2158;DHT22;41972;48.774;9.282;2022-08-21T16:08:59;25.70;1.00
2158;DHT22;41972;48.774;9.282;2022-08-21T16:11:24;25.70;1.00
2158;DHT22;41972;48.774;9.282;2022-08-21T16:13:50;25.80;1.00
2158;DHT22;41972;48.774;9.282;2022-08-21T16:16:19;25.90;1.00
2158;DHT22;41972;48.774;9.282;2022-08-21T16:18:46;25.90;1.00
2158;DHT22;41972;48.774;9.282;2022-08-21T16:21:12;25.90;1.00
2158;DHT22;41972;48.774;9.282;2022-08-21T16:23:38;26.40;1.00
2158;DHT22;41972;48.774;9.282;2022-08-21T16:26:05;25.80;1.00
2158;DHT22;41972;48.774;9.282;2022-08-21T16:28:33;25.80;1.00
2158;DHT22;41972;48.774;9.282;2022-08-21T16:31:01;25.90;1.00
2158;DHT22;41972;48.774;9.282;2022-08-21T16:33:33;25.80;1.00
2158;DHT22;41972;48.774;9.282;2022-08-21T16:36:00;25.90;1.00
2158;DHT22;41972;48.774;9.282;2022-08-21T16:38:27;25.80;1.00
2158;DHT22;41972;48.774;9.282;2022-08-21T16:40:53;25.90;1.00
2158;DHT22;41972;48.774;9.282;2022-08-21T16:43:22;25.80;1.00
2158;DHT22;41972;48.774;9.282;2022-08-21T16:45:49;25.80;1.00
2158;DHT22;41972;48.774;9.282;2022-08-21T16:48:15;25.70;1.00
2158;DHT22;41972;48.774;9.282;2022-08-21T16:50:40;25.70;1.00
2158;DHT22;41972;48.774;9.282;2022-08-21T16:53:06;25.60;1.00
2158;DHT22;41972;48.774;9.282;2022-08-21T16:55:33;25.60;1.00
2158;DHT22;41972;48.774;9.282;2022-08-21T16:58:31;25.60;1.00
2158;DHT22;41972;48.774;9.282;2022-08-21T17:00:54;25.50;1.00
2158;DHT22;41972;48.774;9.282;2022-08-21T17:03:24;25.50;1.00
2158;DHT22;41972;48.774;9.282;2022-08-21T17:05:52;25.50;1.00
2158;DHT22;41972;48.774;9.282;2022-08-21T17:08:17;25.40;1.00
2158;DHT22;41972;48.774;9.282;2022-08-21T17:10:46;25.40;1.00
2158;DHT22;41972;48.774;9.282;2022-08-21T17:13:13;25.40;1.00
2158;DHT22;41972;48.774;9.282;2022-08-21T17:15:40;25.30;1.00